sensor_id;sensor_type;location;lat;lon;timestamp;temperature;humidity
3256;DHT22;1640;48.504;9.224;2023-12-14T00:01:29;5.70;99.90
3256;DHT22;1640;48.504;9.224;2023-12-14T00:03:57;5.80;99.90
3256;DHT22;1640;48.504;9.224;2023-12-14T00:06:24;5.90;99.90
3256;DHT22;1640;48.504;9.224;2023-12-14T00:08:52;5.90;99.90
3256;DHT22;1640;48.504;9.224;2023-12-14T00:11:21;5.90;99.90
3256;DHT22;1640;48.504;9.224;2023-12-14T00:13:48;5.90;99.90
3256;DHT22;1640;48.504;9.224;2023-12-14T00:16:16;6.00;99.90
3256;DHT22;1640;48.504;9.224;2023-12-14T00:18:43;6.00;99.90
3256;DHT22;1640;48.504;9.224;2023-12-14T00:21:11;6.10;99.90
3256;DHT22;1640;48.504;9.224;2023-12-14T00:23:38;6.10;99.90
3256;DHT22;1640;48.504;9.224;2023-12-14T00:26:06;6.20;99.90
3256;DHT22;1640;48.504;9.224;2023-12-14T00:28:35;6.20;99.90
3256;DHT22;1640;48.504;9.224;2023-12-14T00:31:02;6.20;99.90
3256;DHT22;1640;48.504;9.224;2023-12-14T00:33:30;6.00;99.90
3256;DHT22;1640;48.504;9.224;2023-12-14T00:35:58;6.00;99.90
3256;DHT22;1640;48.504;9.224;2023-12-14T00:38:25;6.10;99.90
3256;DHT22;1640;48.504;9.224;2023-12-14T00:40:53;6.10;99.90
3256;DHT22;1640;48.504;9.224;2023-12-14T00:43:20;6.10;99.90
3256;DHT22;1640;48.504;9.224;2023-12-14T00:45:49;6.10;99.90
3256;DHT22;1640;48.504;9.224;2023-12-14T00:48:18;6.00;99.90
3256;DHT22;1640;48.504;9.224;2023-12-14T00:50:46;6.00;99.90
3256;DHT22;1640;48.504;9.224;2023-12-14T00:53:13;6.00;99.90
3256;DHT22;1640;48.504;9.224;2023-12-14T00:55:41;6.00;99.90
3256;DHT22;1640;48.504;9.224;2023-12-14T00:58:08;5.90;99.90
3256;DHT22;1640;48.504;9.224;2023-12-14T01:00:36;6.00;99.90
3256;DHT22;1640;48.504;9.224;2023-12-14T01:03:05;6.00;99.90
3256;DHT22;1640;48.504;9.224;2023-12-14T01:05:32;6.00;99.90
3256;DHT22;1640;48.504;9.224;2023-12-14T01:08:00;6.00;99.90
3256;DHT22;1640;48.504;9.224;2023-12-14T01:10:28;6.00;99.90
3256;DHT22;1640;48.504;9.224;2023-12-14T01:12:55;6.10;99.90
3256;DHT22;1640;48.504;9.224;2023-12-14T01:15:23;6.10;99.90
3256;DHT22;1640;48.504;9.224;2023-12-14T01:17:50;6.20;99.90
3256;DHT22;1640;48.504;9.224;2023-12-14T01:20:19;6.20;99.90
3256;DHT22;1640;48.504;9.224;2023-12-14T01:22:47;6.30;99.90
3256;DHT22;1640;48.504;9.224;2023-12-14T01:25:14;6.30;99.90
3256;DHT22;1640;48.504;9.224;2023-12-14T01:27:42;6.40;99.90
3256;DHT22;1640;48.504;9.224;2023-12-14T01:30:10;6.40;99.90
3256;DHT22;1640;48.504;9.224;2023-12-14T01:32:38;6.40;99.90
3256;DHT22;1640;48.504;9.224;2023-12-14T01:35:06;6.40;99.90
3256;DHT22;1640;48.504;9.224;2023-12-14T01:37:35;6.50;99.90
3256;DHT22;1640;48.504;9.224;2023-12-14T01:40:03;6.50;99.90
3256;DHT22;1640;48.504;9.224;2023-12-14T01:42:31;6.50;99.90
3256;DHT22;1640;48.504;9.224;2023-12-14T01:44:58;6.60;99.90
3256;DHT22;1640;48.504;9.224;2023-12-14T01:47:26;6.50;99.90
3256;DHT22;1640;48.504;9.224;2023-12-14T01:49:53;6.60;99.90
3256;DHT22;1640;48.504;9.224;2023-12-14T01:52:21;6.60;99.90
3256;DHT22;1640;48.504;9.224;2023-12-14T01:54:50;6.60;99.90
3256;DHT22;1640;48.504;9.224;2023-12-14T01:57:17;6.60;99.90
3256;DHT22;1640;48.504;9.224;2023-12-14T01:59:45;6.60;99.90
3256;DHT22;1640;48.504;9.224;2023-12-14T02:02:12;6.70;99.90
3256;DHT22;1640;48.504;9.224;2023-12-14T02:04:40;6.70;99.90
3256;DHT22;1640;48.504;9.224;2023-12-14T02:07:07;6.70;99.90
3256;DHT22;1640;48.504;9.224;2023-12-14T02:09:35;6.70;99.90
3256;DHT22;1640;48.504;9.224;2023-12-14T02:12:05;6.70;99.90
3256;DHT22;1640;48.504;9.224;2023-12-14T02:14:32;6.70;99.90
3256;DHT22;1640;48.504;9.224;2023-12-14T02:17:00;6.80;99.90
3256;DHT22;1640;48.504;9.224;2023-12-14T02:19:28;6.80;99.90
3256;DHT22;1640;48.504;9.224;2023-12-14T02:21:55;6.80;99.90
3256;DHT22;1640;48.504;9.224;2023-12-14T02:24:24;6.70;99.90
3256;DHT22;1640;48.504;9.224;2023-12-14T02:26:52;6.70;99.90
3256;DHT22;1640;48.504;9.224;2023-12-14T02:29:19;6.70;99.90
3256;DHT22;1640;48.504;9.224;2023-12-14T02:31:47;6.70;99.90
3256;DHT22;1640;48.504;9.224;2023-12-14T02:34:15;6.60;99.90
3256;DHT22;1640;48.504;9.224;2023-12-14T02:36:42;6.60;99.90
3256;DHT22;1640;48.504;9.224;2023-12-14T02:39:10;6.60;99.90
3256;DHT22;1640;48.504;9.224;2023-12-14T02:41:39;6.60;99.90
3256;DHT22;1640;48.504;9.224;2023-12-14T02:44:06;6.60;99.90
3256;DHT22;1640;48.504;9.224;2023-12-14T02:46:34;6.60;99.90
3256;DHT22;1640;48.504;9.224;2023-12-14T02:49:01;6.50;99.90
3256;DHT22;1640;48.504;9.224;2023-12-14T02:51:29;6.40;99.90
3256;DHT22;1640;48.504;9.224;2023-12-14T02:53:56;6.30;99.90
3256;DHT22;1640;48.504;9.224;2023-12-14T02:56:24;6.20;99.90
3256;DHT22;1640;48.504;9.224;2023-12-14T02:58:53;6.10;99.90
3256;DHT22;1640;48.504;9.224;2023-12-14T03:01:20;6.10;99.90
3256;DHT22;1640;48.504;9.224;2023-12-14T03:03:48;6.00;99.90
3256;DHT22;1640;48.504;9.224;2023-12-14T03:06:16;6.00;99.90
3256;DHT22;1640;48.504;9.224;2023-12-14T03:08:43;6.00;99.90
3256;DHT22;1640;48.504;9.224;2023-12-14T03:11:20;6.00;99.90
3256;DHT22;1640;48.504;9.224;2023-12-14T03:13:47;6.10;99.90
3256;DHT22;1640;48.504;9.224;2023-12-14T03:16:17;6.10;99.90
3256;DHT22;1640;48.504;9.224;2023-12-14T03:18:45;6.10;99.90
3256;DHT22;1640;48.504;9.224;2023-12-14T03:21:13;6.20;99.90
3256;DHT22;1640;48.504;9.224;2023-12-14T03:23:41;6.20;99.90
3256;DHT22;1640;48.504;9.224;2023-12-14T03:26:08;6.30;99.90
3256;DHT22;1640;48.504;9.224;2023-12-14T03:28:36;6.30;99.90
3256;DHT22;1640;48.504;9.224;2023-12-14T03:31:04;6.30;99.90
3256;DHT22;1640;48.504;9.224;2023-12-14T03:33:33;6.40;99.90
3256;DHT22;1640;48.504;9.224;2023-12-14T03:36:00;6.40;99.90
3256;DHT22;1640;48.504;9.224;2023-12-14T03:38:28;6.40;99.90
3256;DHT22;1640;48.504;9.224;2023-12-14T03:40:56;6.40;99.90
3256;DHT22;1640;48.504;9.224;2023-12-14T03:43:23;6.40;99.90
3256;DHT22;1640;48.504;9.224;2023-12-14T03:45:51;6.40;99.90
3256;DHT22;1640;48.504;9.224;2023-12-14T03:48:18;6.40;99.90
3256;DHT22;1640;48.504;9.224;2023-12-14T03:50:50;6.40;99.90
3256;DHT22;1640;48.504;9.224;2023-12-14T03:53:18;6.40;99.90
3256;DHT22;1640;48.504;9.224;2023-12-14T03:55:46;6.50;99.90
3256;DHT22;1640;48.504;9.224;2023-12-14T03:58:13;6.50;99.90
3256;DHT22;1640;48.504;9.224;2023-12-14T04:00:41;6.50;99.90
3256;DHT22;1640;48.504;9.224;2023-12-14T04:03:09;6.50;99.90
3256;DHT22;1640;48.504;9.224;2023-12-14T04:05:38;6.60;99.90
3256;DHT22;1640;48.504;9.224;2023-12-14T04:08:07;6.60;99.90
3256;DHT22;1640;48.504;9.224;2023-12-14T04:10:35;6.60;99.90
3256;DHT22;1640;48.504;9.224;2023-12-14T04:13:02;6.60;99.90
3256;DHT22;1640;48.504;9.224;2023-12-14T04:15:30;6.60;99.90
3256;DHT22;1640;48.504;9.224;2023-12-14T04:17:57;6.60;99.90
3256;DHT22;1640;48.504;9.224;2023-12-14T04:20:25;6.60;99.90
3256;DHT22;1640;48.504;9.224;2023-12-14T04:22:53;6.60;99.90
3256;DHT22;1640;48.504;9.224;2023-12-14T04:25:21;6.70;99.90
3256;DHT22;1640;48.504;9.224;2023-12-14T04:27:49;6.60;99.90
3256;DHT22;1640;48.504;9.224;2023-12-14T04:30:16;6.60;99.90
3256;DHT22;1640;48.504;9.224;2023-12-14T04:32:44;6.50;99.90
3256;DHT22;1640;48.504;9.224;2023-12-14T04:35:13;6.50;99.90
3256;DHT22;1640;48.504;9.224;2023-12-14T04:37:41;6.40;99.90
3256;DHT22;1640;48.504;9.224;2023-12-14T04:40:09;6.30;99.90
3256;DHT22;1640;48.504;9.224;2023-12-14T04:42:38;6.20;99.90
3256;DHT22;1640;48.504;9.224;2023-12-14T04:45:06;6.30;99.90
3256;DHT22;1640;48.504;9.224;2023-12-14T04:47:35;6.30;99.90
3256;DHT22;1640;48.504;9.224;2023-12-14T04:50:03;6.30;99.90
3256;DHT22;1640;48.504;9.224;2023-12-14T04:52:31;6.30;99.90
3256;DHT22;1640;48.504;9.224;2023-12-14T04:54:59;6.30;99.90
3256;DHT22;1640;48.504;9.224;2023-12-14T04:57:26;6.30;99.90
3256;DHT22;1640;48.504;9.224;2023-12-14T04:59:55;6.30;99.90
3256;DHT22;1640;48.504;9.224;2023-12-14T05:02:23;6.30;99.90
3256;DHT22;1640;48.504;9.224;2023-12-14T05:04:51;6.40;99.90
3256;DHT22;1640;48.504;9.224;2023-12-14T05:07:18;6.30;99.90
3256;DHT22;1640;48.504;9.224;2023-12-14T05:09:46;6.20;99.90
3256;DHT22;1640;48.504;9.224;2023-12-14T05:12:13;6.30;99.90
3256;DHT22;1640;48.504;9.224;2023-12-14T05:14:41;6.30;99.90
3256;DHT22;1640;48.504;9.224;2023-12-14T05:17:10;6.30;99.90
3256;DHT22;1640;48.504;9.224;2023-12-14T05:19:37;6.40;99.90
3256;DHT22;1640;48.504;9.224;2023-12-14T05:22:05;6.30;99.90
3256;DHT22;1640;48.504;9.224;2023-12-14T05:24:33;6.30;99.90
3256;DHT22;1640;48.504;9.224;2023-12-14T05:27:00;6.30;99.90
3256;DHT22;1640;48.504;9.224;2023-12-14T05:29:28;6.40;99.90
3256;DHT22;1640;48.504;9.224;2023-12-14T05:31:55;6.40;99.90
3256;DHT22;1640;48.504;9.224;2023-12-14T05:34:24;6.50;99.90
3256;DHT22;1640;48.504;9.224;2023-12-14T05:36:52;6.50;99.90
3256;DHT22;1640;48.504;9.224;2023-12-14T05:39:19;6.60;99.90
3256;DHT22;1640;48.504;9.224;2023-12-14T05:41:47;6.60;99.90
3256;DHT22;1640;48.504;9.224;2023-12-14T05:44:14;6.60;99.90
3256;DHT22;1640;48.504;9.224;2023-12-14T05:46:42;6.60;99.90
3256;DHT22;1640;48.504;9.224;2023-12-14T05:49:09;6.60;99.90
3256;DHT22;1640;48.504;9.224;2023-12-14T05:51:38;6.70;99.90
3256;DHT22;1640;48.504;9.224;2023-12-14T05:54:06;6.70;99.90
3256;DHT22;1640;48.504;9.224;2023-12-14T05:56:34;6.70;99.90
3256;DHT22;1640;48.504;9.224;2023-12-14T05:59:01;6.70;99.90
3256;DHT22;1640;48.504;9.224;2023-12-14T06:01:29;6.70;99.90
3256;DHT22;1640;48.504;9.224;2023-12-14T06:03:56;6.70;99.90
3256;DHT22;1640;48.504;9.224;2023-12-14T06:06:24;6.70;99.90
3256;DHT22;1640;48.504;9.224;2023-12-14T06:08:52;6.70;99.90
3256;DHT22;1640;48.504;9.224;2023-12-14T06:11:19;6.70;99.90
3256;DHT22;1640;48.504;9.224;2023-12-14T06:13:47;6.60;99.90
3256;DHT22;1640;48.504;9.224;2023-12-14T06:16:14;6.60;99.90
3256;DHT22;1640;48.504;9.224;2023-12-14T06:18:42;6.60;99.90
3256;DHT22;1640;48.504;9.224;2023-12-14T06:21:11;6.60;99.90
3256;DHT22;1640;48.504;9.224;2023-12-14T06:23:39;6.60;99.90
3256;DHT22;1640;48.504;9.224;2023-12-14T06:26:08;6.60;99.90
3256;DHT22;1640;48.504;9.224;2023-12-14T06:28:36;6.60;99.90
3256;DHT22;1640;48.504;9.224;2023-12-14T06:31:04;6.60;99.90
3256;DHT22;1640;48.504;9.224;2023-12-14T06:33:31;6.50;99.90
3256;DHT22;1640;48.504;9.224;2023-12-14T06:36:03;6.50;99.90
3256;DHT22;1640;48.504;9.224;2023-12-14T06:38:31;6.50;99.90
3256;DHT22;1640;48.504;9.224;2023-12-14T06:40:59;6.50;99.90
3256;DHT22;1640;48.504;9.224;2023-12-14T06:43:29;6.50;99.90
3256;DHT22;1640;48.504;9.224;2023-12-14T06:45:57;6.50;99.90
3256;DHT22;1640;48.504;9.224;2023-12-14T06:48:24;6.50;99.90
3256;DHT22;1640;48.504;9.224;2023-12-14T06:50:52;6.50;99.90
3256;DHT22;1640;48.504;9.224;2023-12-14T06:53:21;6.60;99.90
3256;DHT22;1640;48.504;9.224;2023-12-14T06:55:48;6.50;99.90
3256;DHT22;1640;48.504;9.224;2023-12-14T06:58:16;6.50;99.90
3256;DHT22;1640;48.504;9.224;2023-12-14T07:00:45;6.40;99.90
3256;DHT22;1640;48.504;9.224;2023-12-14T07:03:13;6.30;99.90
3256;DHT22;1640;48.504;9.224;2023-12-14T07:05:41;6.30;99.90
3256;DHT22;1640;48.504;9.224;2023-12-14T07:08:09;6.30;99.90
3256;DHT22;1640;48.504;9.224;2023-12-14T07:10:36;6.40;99.90
3256;DHT22;1640;48.504;9.224;2023-12-14T07:13:04;6.40;99.90
3256;DHT22;1640;48.504;9.224;2023-12-14T07:15:31;6.40;99.90
3256;DHT22;1640;48.504;9.224;2023-12-14T07:18:00;6.40;99.90
3256;DHT22;1640;48.504;9.224;2023-12-14T07:20:30;6.20;99.90
3256;DHT22;1640;48.504;9.224;2023-12-14T07:22:58;6.20;99.90
3256;DHT22;1640;48.504;9.224;2023-12-14T07:25:26;6.30;99.90
3256;DHT22;1640;48.504;9.224;2023-12-14T07:27:53;6.30;99.90
3256;DHT22;1640;48.504;9.224;2023-12-14T07:30:21;6.40;99.90
3256;DHT22;1640;48.504;9.224;2023-12-14T07:32:48;6.40;99.90
3256;DHT22;1640;48.504;9.224;2023-12-14T07:35:18;6.50;99.90
3256;DHT22;1640;48.504;9.224;2023-12-14T07:37:46;6.50;99.90
3256;DHT22;1640;48.504;9.224;2023-12-14T07:40:13;6.50;99.90
3256;DHT22;1640;48.504;9.224;2023-12-14T07:42:41;6.50;99.90
3256;DHT22;1640;48.504;9.224;2023-12-14T07:45:09;6.50;99.90
3256;DHT22;1640;48.504;9.224;2023-12-14T07:47:36;6.50;99.90
3256;DHT22;1640;48.504;9.224;2023-12-14T07:50:05;6.50;99.90
3256;DHT22;1640;48.504;9.224;2023-12-14T07:52:34;6.50;99.90
3256;DHT22;1640;48.504;9.224;2023-12-14T07:55:02;6.60;99.90
3256;DHT22;1640;48.504;9.224;2023-12-14T07:57:30;6.60;99.90
3256;DHT22;1640;48.504;9.224;2023-12-14T07:59:58;6.60;99.90
3256;DHT22;1640;48.504;9.224;2023-12-14T08:02:25;6.60;99.90
3256;DHT22;1640;48.504;9.224;2023-12-14T08:04:53;6.60;99.90
3256;DHT22;1640;48.504;9.224;2023-12-14T08:07:20;6.70;99.90
3256;DHT22;1640;48.504;9.224;2023-12-14T08:09:49;6.70;99.90
3256;DHT22;1640;48.504;9.224;2023-12-14T08:12:17;6.70;99.90
3256;DHT22;1640;48.504;9.224;2023-12-14T08:14:44;6.80;99.90
3256;DHT22;1640;48.504;9.224;2023-12-14T08:17:12;6.80;99.90
3256;DHT22;1640;48.504;9.224;2023-12-14T08:19:40;6.80;99.90
3256;DHT22;1640;48.504;9.224;2023-12-14T08:22:08;6.80;99.90
3256;DHT22;1640;48.504;9.224;2023-12-14T08:24:38;6.70;99.90
3256;DHT22;1640;48.504;9.224;2023-12-14T08:27:07;6.60;99.90
3256;DHT22;1640;48.504;9.224;2023-12-14T08:29:35;6.50;99.90
3256;DHT22;1640;48.504;9.224;2023-12-14T08:32:03;6.50;99.90
3256;DHT22;1640;48.504;9.224;2023-12-14T08:34:31;6.60;99.90
3256;DHT22;1640;48.504;9.224;2023-12-14T08:37:00;6.70;99.90
3256;DHT22;1640;48.504;9.224;2023-12-14T08:39:29;6.80;99.90
3256;DHT22;1640;48.504;9.224;2023-12-14T08:41:56;6.90;99.90
3256;DHT22;1640;48.504;9.224;2023-12-14T08:44:25;7.00;99.90
3256;DHT22;1640;48.504;9.224;2023-12-14T08:46:53;6.90;99.90
3256;DHT22;1640;48.504;9.224;2023-12-14T08:49:20;6.90;99.90
3256;DHT22;1640;48.504;9.224;2023-12-14T08:51:49;6.90;99.90
3256;DHT22;1640;48.504;9.224;2023-12-14T08:54:17;6.90;99.90
3256;DHT22;1640;48.504;9.224;2023-12-14T08:56:44;7.00;99.90
3256;DHT22;1640;48.504;9.224;2023-12-14T08:59:12;7.00;99.90
3256;DHT22;1640;48.504;9.224;2023-12-14T09:01:41;7.00;99.90
3256;DHT22;1640;48.504;9.224;2023-12-14T09:04:09;7.10;99.90
3256;DHT22;1640;48.504;9.224;2023-12-14T09:06:36;7.20;99.90
3256;DHT22;1640;48.504;9.224;2023-12-14T09:09:04;7.10;99.90
3256;DHT22;1640;48.504;9.224;2023-12-14T09:11:31;7.10;99.90
3256;DHT22;1640;48.504;9.224;2023-12-14T09:14:01;7.20;99.90
3256;DHT22;1640;48.504;9.224;2023-12-14T09:16:28;7.20;99.90
3256;DHT22;1640;48.504;9.224;2023-12-14T09:18:57;7.30;99.90
3256;DHT22;1640;48.504;9.224;2023-12-14T09:21:25;7.30;99.90
3256;DHT22;1640;48.504;9.224;2023-12-14T09:23:53;7.30;99.90
3256;DHT22;1640;48.504;9.224;2023-12-14T09:26:20;7.40;99.90
3256;DHT22;1640;48.504;9.224;2023-12-14T09:28:48;7.40;99.90
3256;DHT22;1640;48.504;9.224;2023-12-14T09:31:15;7.50;99.90
3256;DHT22;1640;48.504;9.224;2023-12-14T09:33:43;7.40;99.90
3256;DHT22;1640;48.504;9.224;2023-12-14T09:36:12;7.40;99.90
3256;DHT22;1640;48.504;9.224;2023-12-14T09:38:39;7.20;99.90
3256;DHT22;1640;48.504;9.224;2023-12-14T09:41:07;7.20;99.90
3256;DHT22;1640;48.504;9.224;2023-12-14T09:43:35;7.30;99.90
3256;DHT22;1640;48.504;9.224;2023-12-14T09:46:03;7.40;99.90
3256;DHT22;1640;48.504;9.224;2023-12-14T09:48:32;7.50;99.90
3256;DHT22;1640;48.504;9.224;2023-12-14T09:51:00;7.70;99.90
3256;DHT22;1640;48.504;9.224;2023-12-14T09:53:29;7.90;99.90
3256;DHT22;1640;48.504;9.224;2023-12-14T09:55:56;7.90;99.90
3256;DHT22;1640;48.504;9.224;2023-12-14T09:58:24;8.00;99.90
3256;DHT22;1640;48.504;9.224;2023-12-14T10:00:52;8.20;99.90
3256;DHT22;1640;48.504;9.224;2023-12-14T10:03:21;8.20;99.90
3256;DHT22;1640;48.504;9.224;2023-12-14T10:05:49;8.30;99.90
3256;DHT22;1640;48.504;9.224;2023-12-14T10:08:17;8.30;99.90
3256;DHT22;1640;48.504;9.224;2023-12-14T10:10:47;8.20;99.90
3256;DHT22;1640;48.504;9.224;2023-12-14T10:13:17;8.20;99.90
3256;DHT22;1640;48.504;9.224;2023-12-14T10:15:46;8.30;99.90
3256;DHT22;1640;48.504;9.224;2023-12-14T10:18:21;8.40;99.90
3256;DHT22;1640;48.504;9.224;2023-12-14T10:20:49;8.50;99.90
3256;DHT22;1640;48.504;9.224;2023-12-14T10:23:17;8.50;99.90
3256;DHT22;1640;48.504;9.224;2023-12-14T10:25:46;8.40;99.90
3256;DHT22;1640;48.504;9.224;2023-12-14T10:28:14;8.20;99.90
3256;DHT22;1640;48.504;9.224;2023-12-14T10:30:42;8.10;99.90
3256;DHT22;1640;48.504;9.224;2023-12-14T10:33:10;8.00;99.90
3256;DHT22;1640;48.504;9.224;2023-12-14T10:35:37;7.90;99.90
3256;DHT22;1640;48.504;9.224;2023-12-14T10:38:05;7.90;99.90
3256;DHT22;1640;48.504;9.224;2023-12-14T10:40:36;7.90;99.90
3256;DHT22;1640;48.504;9.224;2023-12-14T10:43:08;7.90;99.90
3256;DHT22;1640;48.504;9.224;2023-12-14T10:45:38;8.00;99.90
3256;DHT22;1640;48.504;9.224;2023-12-14T10:48:06;8.00;99.90
3256;DHT22;1640;48.504;9.224;2023-12-14T10:50:35;8.00;99.90
3256;DHT22;1640;48.504;9.224;2023-12-14T10:53:04;7.90;99.90
3256;DHT22;1640;48.504;9.224;2023-12-14T10:55:36;7.80;99.90
3256;DHT22;1640;48.504;9.224;2023-12-14T10:58:05;7.80;99.90
3256;DHT22;1640;48.504;9.224;2023-12-14T11:00:34;8.00;99.90
3256;DHT22;1640;48.504;9.224;2023-12-14T11:03:04;8.10;99.90
3256;DHT22;1640;48.504;9.224;2023-12-14T11:05:33;8.30;99.90
3256;DHT22;1640;48.504;9.224;2023-12-14T11:08:03;8.30;99.90
3256;DHT22;1640;48.504;9.224;2023-12-14T11:10:39;8.30;99.90
3256;DHT22;1640;48.504;9.224;2023-12-14T11:13:08;8.30;99.90
3256;DHT22;1640;48.504;9.224;2023-12-14T11:15:41;8.30;99.90
3256;DHT22;1640;48.504;9.224;2023-12-14T11:18:33;8.30;99.90
3256;DHT22;1640;48.504;9.224;2023-12-14T11:21:01;8.30;99.90
3256;DHT22;1640;48.504;9.224;2023-12-14T11:23:33;8.40;99.90
3256;DHT22;1640;48.504;9.224;2023-12-14T11:26:04;8.50;99.90
3256;DHT22;1640;48.504;9.224;2023-12-14T11:28:33;8.70;99.90
3256;DHT22;1640;48.504;9.224;2023-12-14T11:31:03;8.70;99.90
3256;DHT22;1640;48.504;9.224;2023-12-14T11:33:33;8.60;99.90
3256;DHT22;1640;48.504;9.224;2023-12-14T11:36:02;8.80;99.90
3256;DHT22;1640;48.504;9.224;2023-12-14T11:38:30;8.80;99.90
3256;DHT22;1640;48.504;9.224;2023-12-14T11:40:58;8.70;99.90
3256;DHT22;1640;48.504;9.224;2023-12-14T11:43:26;8.80;99.90
3256;DHT22;1640;48.504;9.224;2023-12-14T11:45:54;8.90;99.90
3256;DHT22;1640;48.504;9.224;2023-12-14T11:48:23;9.00;99.90
3256;DHT22;1640;48.504;9.224;2023-12-14T11:50:51;9.00;99.90
3256;DHT22;1640;48.504;9.224;2023-12-14T11:53:19;9.00;99.90
3256;DHT22;1640;48.504;9.224;2023-12-14T11:55:46;8.90;99.90
3256;DHT22;1640;48.504;9.224;2023-12-14T11:58:15;8.90;99.90
3256;DHT22;1640;48.504;9.224;2023-12-14T12:00:43;8.80;99.90
3256;DHT22;1640;48.504;9.224;2023-12-14T12:03:14;8.80;99.90
3256;DHT22;1640;48.504;9.224;2023-12-14T12:05:44;8.70;99.90
3256;DHT22;1640;48.504;9.224;2023-12-14T12:08:13;8.70;99.90
3256;DHT22;1640;48.504;9.224;2023-12-14T12:10:42;8.80;99.90
3256;DHT22;1640;48.504;9.224;2023-12-14T12:13:12;9.10;99.90
3256;DHT22;1640;48.504;9.224;2023-12-14T12:15:41;9.20;99.90
3256;DHT22;1640;48.504;9.224;2023-12-14T12:18:10;9.20;99.90
3256;DHT22;1640;48.504;9.224;2023-12-14T12:20:38;9.10;99.90
3256;DHT22;1640;48.504;9.224;2023-12-14T12:23:07;9.10;99.90
3256;DHT22;1640;48.504;9.224;2023-12-14T12:25:35;9.20;99.90
3256;DHT22;1640;48.504;9.224;2023-12-14T12:28:03;9.10;99.90
3256;DHT22;1640;48.504;9.224;2023-12-14T12:30:31;9.00;99.90
3256;DHT22;1640;48.504;9.224;2023-12-14T12:32:59;9.00;99.90
3256;DHT22;1640;48.504;9.224;2023-12-14T12:35:26;8.90;99.90
3256;DHT22;1640;48.504;9.224;2023-12-14T12:37:56;8.70;99.90
3256;DHT22;1640;48.504;9.224;2023-12-14T12:40:25;8.60;99.90
3256;DHT22;1640;48.504;9.224;2023-12-14T12:42:53;8.50;99.90
3256;DHT22;1640;48.504;9.224;2023-12-14T12:45:21;8.50;99.90
3256;DHT22;1640;48.504;9.224;2023-12-14T12:47:51;8.40;99.90
3256;DHT22;1640;48.504;9.224;2023-12-14T12:50:18;8.10;99.90
3256;DHT22;1640;48.504;9.224;2023-12-14T12:52:46;7.80;99.90
3256;DHT22;1640;48.504;9.224;2023-12-14T12:55:15;7.70;99.90
3256;DHT22;1640;48.504;9.224;2023-12-14T12:57:44;7.60;99.90
3256;DHT22;1640;48.504;9.224;2023-12-14T13:00:14;7.40;99.90
3256;DHT22;1640;48.504;9.224;2023-12-14T13:02:42;7.40;99.90
3256;DHT22;1640;48.504;9.224;2023-12-14T13:05:11;7.30;99.90
3256;DHT22;1640;48.504;9.224;2023-12-14T13:07:40;7.30;99.90
3256;DHT22;1640;48.504;9.224;2023-12-14T13:10:08;7.40;99.90
3256;DHT22;1640;48.504;9.224;2023-12-14T13:12:36;7.50;99.90
3256;DHT22;1640;48.504;9.224;2023-12-14T13:15:06;7.70;99.90
3256;DHT22;1640;48.504;9.224;2023-12-14T13:17:34;7.80;99.90
3256;DHT22;1640;48.504;9.224;2023-12-14T13:20:02;8.00;99.90
3256;DHT22;1640;48.504;9.224;2023-12-14T13:22:32;8.10;99.90
3256;DHT22;1640;48.504;9.224;2023-12-14T13:25:00;8.20;99.90
3256;DHT22;1640;48.504;9.224;2023-12-14T13:27:29;8.20;99.90
3256;DHT22;1640;48.504;9.224;2023-12-14T13:29:56;8.20;99.90
3256;DHT22;1640;48.504;9.224;2023-12-14T13:32:25;8.20;99.90
3256;DHT22;1640;48.504;9.224;2023-12-14T13:34:53;8.20;99.90
3256;DHT22;1640;48.504;9.224;2023-12-14T13:37:21;8.30;99.90
3256;DHT22;1640;48.504;9.224;2023-12-14T13:39:48;8.30;99.90
3256;DHT22;1640;48.504;9.224;2023-12-14T13:42:16;8.20;99.90
3256;DHT22;1640;48.504;9.224;2023-12-14T13:44:44;8.30;99.90
3256;DHT22;1640;48.504;9.224;2023-12-14T13:47:11;8.30;99.90
3256;DHT22;1640;48.504;9.224;2023-12-14T13:49:40;8.30;99.90
3256;DHT22;1640;48.504;9.224;2023-12-14T13:52:08;8.30;99.90
3256;DHT22;1640;48.504;9.224;2023-12-14T13:54:36;8.40;99.90
3256;DHT22;1640;48.504;9.224;2023-12-14T13:57:04;8.40;99.90
3256;DHT22;1640;48.504;9.224;2023-12-14T13:59:31;8.50;99.90
3256;DHT22;1640;48.504;9.224;2023-12-14T14:01:59;8.40;99.90
3256;DHT22;1640;48.504;9.224;2023-12-14T14:04:26;8.30;99.90
3256;DHT22;1640;48.504;9.224;2023-12-14T14:06:55;8.40;99.90
3256;DHT22;1640;48.504;9.224;2023-12-14T14:09:24;8.40;99.90
3256;DHT22;1640;48.504;9.224;2023-12-14T14:11:51;8.30;99.90
3256;DHT22;1640;48.504;9.224;2023-12-14T14:14:19;8.20;99.90
3256;DHT22;1640;48.504;9.224;2023-12-14T14:16:49;8.30;99.90
3256;DHT22;1640;48.504;9.224;2023-12-14T14:19:16;8.30;99.90
3256;DHT22;1640;48.504;9.224;2023-12-14T14:21:44;8.30;99.90
3256;DHT22;1640;48.504;9.224;2023-12-14T14:24:14;8.20;99.90
3256;DHT22;1640;48.504;9.224;2023-12-14T14:26:41;8.30;99.90
3256;DHT22;1640;48.504;9.224;2023-12-14T14:29:09;8.20;99.90
3256;DHT22;1640;48.504;9.224;2023-12-14T14:31:37;8.00;99.90
3256;DHT22;1640;48.504;9.224;2023-12-14T14:34:05;7.90;99.90
3256;DHT22;1640;48.504;9.224;2023-12-14T14:36:33;7.90;99.90
3256;DHT22;1640;48.504;9.224;2023-12-14T14:39:01;7.90;99.90
3256;DHT22;1640;48.504;9.224;2023-12-14T14:41:32;7.90;99.90
3256;DHT22;1640;48.504;9.224;2023-12-14T14:43:59;7.70;99.90
3256;DHT22;1640;48.504;9.224;2023-12-14T14:46:27;7.70;99.90
3256;DHT22;1640;48.504;9.224;2023-12-14T14:48:55;7.40;99.90
3256;DHT22;1640;48.504;9.224;2023-12-14T14:51:22;7.10;99.90
3256;DHT22;1640;48.504;9.224;2023-12-14T14:53:51;6.90;99.90
3256;DHT22;1640;48.504;9.224;2023-12-14T14:56:19;6.90;99.90
3256;DHT22;1640;48.504;9.224;2023-12-14T14:58:48;6.90;99.90
3256;DHT22;1640;48.504;9.224;2023-12-14T15:01:16;6.90;99.90
3256;DHT22;1640;48.504;9.224;2023-12-14T15:03:44;7.00;99.90
3256;DHT22;1640;48.504;9.224;2023-12-14T15:06:12;7.00;99.90
3256;DHT22;1640;48.504;9.224;2023-12-14T15:08:40;7.10;99.90
3256;DHT22;1640;48.504;9.224;2023-12-14T15:11:08;7.10;99.90
3256;DHT22;1640;48.504;9.224;2023-12-14T15:13:37;7.10;99.90
3256;DHT22;1640;48.504;9.224;2023-12-14T15:16:07;7.00;99.90
3256;DHT22;1640;48.504;9.224;2023-12-14T15:18:35;7.00;99.90
3256;DHT22;1640;48.504;9.224;2023-12-14T15:21:07;6.90;99.90
3256;DHT22;1640;48.504;9.224;2023-12-14T15:23:35;6.90;99.90
3256;DHT22;1640;48.504;9.224;2023-12-14T15:26:03;6.90;99.90
3256;DHT22;1640;48.504;9.224;2023-12-14T15:28:30;6.80;99.90
3256;DHT22;1640;48.504;9.224;2023-12-14T15:30:58;6.70;99.90
3256;DHT22;1640;48.504;9.224;2023-12-14T15:33:27;6.60;99.90
3256;DHT22;1640;48.504;9.224;2023-12-14T15:35:55;6.70;99.90
3256;DHT22;1640;48.504;9.224;2023-12-14T15:38:23;6.60;99.90
3256;DHT22;1640;48.504;9.224;2023-12-14T15:40:50;6.60;99.90
3256;DHT22;1640;48.504;9.224;2023-12-14T15:43:18;6.60;99.90
3256;DHT22;1640;48.504;9.224;2023-12-14T15:45:45;6.70;99.90
3256;DHT22;1640;48.504;9.224;2023-12-14T15:48:13;6.70;99.90
3256;DHT22;1640;48.504;9.224;2023-12-14T15:50:42;6.70;99.90
3256;DHT22;1640;48.504;9.224;2023-12-14T15:53:10;6.80;99.90
3256;DHT22;1640;48.504;9.224;2023-12-14T15:55:38;6.70;99.90
3256;DHT22;1640;48.504;9.224;2023-12-14T15:58:06;6.70;99.90
3256;DHT22;1640;48.504;9.224;2023-12-14T16:00:32;6.70;99.90
3256;DHT22;1640;48.504;9.224;2023-12-14T16:03:00;6.70;99.90
3256;DHT22;1640;48.504;9.224;2023-12-14T16:05:29;6.80;99.90
3256;DHT22;1640;48.504;9.224;2023-12-14T16:07:58;6.70;99.90
3256;DHT22;1640;48.504;9.224;2023-12-14T16:10:26;6.80;99.90
3256;DHT22;1640;48.504;9.224;2023-12-14T16:12:53;6.80;99.90
3256;DHT22;1640;48.504;9.224;2023-12-14T16:15:21;6.70;99.90
3256;DHT22;1640;48.504;9.224;2023-12-14T16:17:49;6.70;99.90
3256;DHT22;1640;48.504;9.224;2023-12-14T16:20:17;6.80;99.90
3256;DHT22;1640;48.504;9.224;2023-12-14T16:22:50;6.70;99.90